Time;durP1;ratioP1;P1;durP2;ratioP2;P2;SDS_P1;SDS_P2;PMS_P1;PMS_P2;Temp;Humidity;BMP_temperature;BMP_pressure;BME280_temperature;BME280_humidity;BME280_pressure;Samples;Min_cycle;Max_cycle;Signal;HPM_P1;HPM_P2
2022/03/24 00:00:18;;;;;;;42.42;24.02;;;;;;;3.82;81.26;103144.22;5093433;28;20032;-75
2022/03/24 00:02:44;;;;;;;46.47;24.65;;;;;;;3.81;81.25;103142.50;5093564;28;20521;-75
2022/03/24 00:05:11;;;;;;;38.92;23.08;;;;;;;3.78;81.68;103141.72;5093311;28;20023;-74
2022/03/24 00:07:37;;;;;;;40.60;23.88;;;;;;;3.76;81.63;103143.50;5074369;28;20058;-75
2022/03/24 00:10:03;;;;;;;47.75;24.95;;;;;;;3.74;81.91;103143.53;5074799;28;20024;-74
2022/03/24 00:12:28;;;;;;;42.47;24.58;;;;;;;3.72;82.26;103137.47;5093048;28;20032;-74
2022/03/24 00:14:54;;;;;;;43.72;26.17;;;;;;;3.70;82.44;103133.97;5074925;28;20093;-74
2022/03/24 00:17:20;;;;;;;42.15;24.35;;;;;;;3.67;82.38;103139.31;5093131;28;20071;-74
2022/03/24 00:19:46;;;;;;;41.85;23.65;;;;;;;3.63;82.69;103140.31;5092849;28;20024;-74
2022/03/24 00:22:11;;;;;;;48.38;24.60;;;;;;;3.59;82.59;103136.88;5093006;28;20028;-74
2022/03/24 00:24:37;;;;;;;43.60;25.40;;;;;;;3.57;82.50;103136.06;5092967;28;20464;-75
2022/03/24 00:27:03;;;;;;;45.88;24.70;;;;;;;3.55;82.75;103137.84;5093029;28;20032;-74
2022/03/24 00:29:28;;;;;;;45.60;26.40;;;;;;;3.52;82.66;103136.19;5092826;28;20039;-74
2022/03/24 00:31:54;;;;;;;44.67;25.92;;;;;;;3.49;82.87;103135.38;5092905;28;20034;-74
2022/03/24 00:34:19;;;;;;;50.15;26.52;;;;;;;3.47;83.44;103134.56;5092332;28;20028;-75
2022/03/24 00:36:45;;;;;;;46.47;25.80;;;;;;;3.47;83.79;103142.47;5092513;28;20162;-75
2022/03/24 00:39:10;;;;;;;46.70;28.20;;;;;;;3.50;84.45;103139.75;5092198;28;20074;-74
2022/03/24 00:41:37;;;;;;;48.80;26.42;;;;;;;3.49;84.94;103141.53;5073908;28;20043;-76
2022/03/24 00:44:03;;;;;;;50.35;28.80;;;;;;;3.47;85.57;103130.16;5092167;28;20048;-74
2022/03/24 00:46:31;;;;;;;49.90;28.20;;;;;;;3.45;86.16;103136.34;5092076;28;20469;-74
2022/03/24 00:48:57;;;;;;;47.38;27.08;;;;;;;3.40;85.32;103131.19;5073540;28;20112;-74
2022/03/24 00:51:22;;;;;;;47.42;27.42;;;;;;;3.37;84.91;103133.03;5092282;28;20107;-74
2022/03/24 00:53:49;;;;;;;47.60;26.40;;;;;;;3.32;84.44;103130.53;5073742;28;20081;-74
2022/03/24 00:56:14;;;;;;;49.33;28.58;;;;;;;3.30;84.30;103134.94;5092193;28;20032;-75
2022/03/24 00:58:39;;;;;;;44.17;25.73;;;;;;;3.27;84.54;103132.38;5092640;28;20101;-74
2022/03/24 01:01:11;;;;;;;47.97;27.20;;;;;;;3.25;84.95;103129.78;5092199;28;20032;-74
2022/03/24 01:03:36;;;;;;;52.50;27.27;;;;;;;3.24;84.96;103127.19;5074631;28;20046;-78
2022/03/24 01:06:03;;;;;;;45.13;27.05;;;;;;;3.22;85.10;103119.34;5092472;28;20040;-74
2022/03/24 01:08:31;;;;;;;46.08;27.02;;;;;;;3.18;84.93;103117.69;5091763;28;20058;-73
2022/03/24 01:10:57;;;;;;;50.20;26.98;;;;;;;3.14;84.84;103122.16;5092473;28;20131;-73
2022/03/24 01:13:22;;;;;;;47.28;26.65;;;;;;;3.11;84.76;103116.09;5091694;28;20042;-74
2022/03/24 01:15:49;;;;;;;50.30;27.00;;;;;;;3.08;84.73;103114.41;5091677;28;20464;-74
2022/03/24 01:18:16;;;;;;;55.00;28.75;;;;;;;3.05;85.17;103116.25;5092126;28;20036;-73
2022/03/24 01:20:41;;;;;;;52.17;29.95;;;;;;;3.04;85.66;103123.25;5091640;28;20127;-74
2022/03/24 01:23:08;;;;;;;48.90;28.60;;;;;;;3.00;85.58;103117.19;5091794;28;20447;-74
2022/03/24 01:25:33;;;;;;;54.00;27.45;;;;;;;2.99;85.45;103117.25;5091412;28;20032;-74
2022/03/24 01:27:59;;;;;;;50.83;29.33;;;;;;;2.96;85.65;103114.69;5091591;28;20028;-74
2022/03/24 01:30:24;;;;;;;48.00;27.00;;;;;;;2.92;86.00;103113.84;5073521;28;20108;-75
2022/03/24 01:32:50;;;;;;;50.80;28.08;;;;;;;2.90;85.77;103120.06;5073485;28;20122;-75
2022/03/24 01:35:16;;;;;;;48.67;29.00;;;;;;;2.89;85.48;103110.44;5091921;28;20077;-76
2022/03/24 01:37:42;;;;;;;52.95;30.05;;;;;;;2.87;85.85;103112.25;5091413;28;20082;-78
2022/03/24 01:40:10;;;;;;;51.28;28.20;;;;;;;2.85;86.39;103106.16;5091457;28;20032;-74
2022/03/24 01:42:36;;;;;;;52.88;28.63;;;;;;;2.81;86.16;103103.59;5091300;28;20028;-75
2022/03/24 01:45:03;;;;;;;48.40;27.25;;;;;;;2.77;86.71;103096.66;5091957;28;20103;-75
2022/03/24 01:47:29;;;;;;;50.33;28.25;;;;;;;2.79;86.58;103099.25;5091676;28;20036;-73
2022/03/24 01:49:58;;;;;;;51.70;29.13;;;;;;;2.79;87.62;103102.75;5091618;28;20420;-75
2022/03/24 01:52:25;;;;;;;48.72;27.50;;;;;;;2.77;88.04;103098.44;5092151;28;20024;-75
2022/03/24 01:54:54;;;;;;;53.33;29.13;;;;;;;2.73;88.38;103105.53;5091503;28;20032;-75
2022/03/24 01:57:21;;;;;;;54.47;29.65;;;;;;;2.70;88.36;103096.81;5091587;28;20063;-74
2022/03/24 01:59:49;;;;;;;49.35;27.73;;;;;;;2.68;88.65;103101.25;5093717;28;20032;-75
2022/03/24 02:02:15;;;;;;;54.85;27.20;;;;;;;2.61;88.22;103093.50;5095727;28;20120;-74
2022/03/24 02:04:43;;;;;;;50.53;29.17;;;;;;;2.60;87.83;103083.88;5095590;28;20035;-74
2022/03/24 02:07:09;;;;;;;48.85;28.05;;;;;;;2.58;88.18;103090.06;5095646;28;20123;-73
2022/03/24 02:09:38;;;;;;;53.78;27.70;;;;;;;2.56;88.27;103091.88;5098117;28;20383;-81
2022/03/24 02:12:08;;;;;;;56.58;29.38;;;;;;;2.53;88.91;103084.91;5098195;28;20035;-80
2022/03/24 02:14:34;;;;;;;49.58;28.42;;;;;;;2.49;88.72;103087.63;5079227;28;20027;-80
2022/03/24 02:17:00;;;;;;;51.60;27.40;;;;;;;2.45;88.34;103100.84;5097340;28;20161;-80
2022/03/24 02:19:26;;;;;;;43.50;25.52;;;;;;;2.42;88.41;103093.00;5079546;28;20047;-81
2022/03/24 02:21:54;;;;;;;50.90;26.13;;;;;;;2.38;88.26;103087.84;5062963;28;20024;-80
2022/03/24 02:24:25;;;;;;;52.03;27.00;;;;;;;2.35;88.00;103088.78;5078833;28;20080;-80
2022/03/24 02:26:52;;;;;;;55.13;29.52;;;;;;;2.34;88.20;103088.81;5097223;28;20028;-79
2022/03/24 02:29:19;;;;;;;44.85;27.60;;;;;;;2.31;88.50;103081.00;5097953;28;20081;-80
2022/03/24 02:31:49;;;;;;;42.63;25.88;;;;;;;2.28;88.29;103087.16;5097322;28;20035;-80
2022/03/24 02:34:40;;;;;;;47.25;27.58;;;;;;;2.25;88.08;103093.31;5097552;28;20038;-80
2022/03/24 02:37:11;;;;;;;49.00;26.48;;;;;;;2.22;88.00;103088.13;5078967;28;20036;-80
2022/03/24 02:39:45;;;;;;;49.08;27.92;;;;;;;2.20;88.28;103084.69;5097446;28;20024;-80
2022/03/24 02:42:14;;;;;;;47.47;28.05;;;;;;;2.18;88.58;103086.50;5096499;28;20032;-80
2022/03/24 02:44:42;;;;;;;47.22;26.38;;;;;;;2.16;89.21;103082.16;5096759;28;20363;-80
2022/03/24 02:47:08;;;;;;;54.42;27.67;;;;;;;2.13;88.88;103085.69;5096735;28;20505;-80
2022/03/24 02:49:35;;;;;;;51.45;28.80;;;;;;;2.12;88.98;103081.34;5078487;28;20498;-80
2022/03/24 02:52:00;;;;;;;44.42;26.77;;;;;;;2.09;88.93;103082.28;5096617;28;20032;-80
2022/03/24 02:54:28;;;;;;;54.50;28.33;;;;;;;2.07;88.88;103083.19;5096376;28;20039;-81
2022/03/24 02:56:53;;;;;;;49.22;26.98;;;;;;;2.03;88.89;103085.03;5078063;28;20055;-80
2022/03/24 02:59:19;;;;;;;47.22;27.15;;;;;;;2.01;89.29;103085.94;5096469;28;20067;-80
2022/03/24 03:01:57;;;;;;;43.65;25.00;;;;;;;1.98;88.83;103083.38;5096566;28;20028;-81
2022/03/24 03:04:24;;;;;;;51.63;27.63;;;;;;;1.94;88.45;103085.16;5096809;28;20052;-80
2022/03/24 03:06:49;;;;;;;47.55;27.83;;;;;;;1.93;88.93;103097.44;5096606;28;20039;-80
2022/03/24 03:09:16;;;;;;;52.08;29.73;;;;;;;1.90;89.36;103083.50;5077944;28;20354;-80
2022/03/24 03:11:46;;;;;;;53.53;27.23;;;;;;;1.88;89.95;103087.91;5095446;28;20062;-81
2022/03/24 03:14:14;;;;;;;49.70;27.55;;;;;;;1.84;89.78;103079.22;5096487;28;20047;-80
2022/03/24 03:16:41;;;;;;;56.45;28.33;;;;;;;1.82;90.41;103080.16;5096079;28;20023;-81
2022/03/24 03:19:08;;;;;;;54.85;27.42;;;;;;;1.80;90.45;103081.94;5095958;28;20122;-81
2022/03/24 03:21:35;;;;;;;46.97;26.08;;;;;;;1.75;90.50;103089.91;5096045;28;20084;-80
2022/03/24 03:24:02;;;;;;;46.17;27.48;;;;;;;1.72;90.47;103088.19;5061033;28;20036;-81
2022/03/24 03:26:28;;;;;;;51.20;29.02;;;;;;;1.70;90.48;103081.22;5096457;28;20114;-81
2022/03/24 03:28:54;;;;;;;46.88;27.80;;;;;;;1.67;90.80;103086.53;5077969;28;20117;-78
2022/03/24 03:31:22;;;;;;;49.28;27.88;;;;;;;1.62;91.17;103081.38;5095956;28;20368;-80
2022/03/24 03:33:48;;;;;;;51.28;27.98;;;;;;;1.61;91.00;103082.25;5078799;28;20036;-80
2022/03/24 03:36:13;;;;;;;45.13;26.98;;;;;;;1.59;91.06;103086.66;5098509;28;20058;-80
2022/03/24 03:38:39;;;;;;;48.40;27.73;;;;;;;1.58;90.79;103079.66;5098029;28;20028;-80
2022/03/24 03:41:06;;;;;;;49.53;27.27;;;;;;;1.57;90.69;103075.34;5080552;28;20043;-80
2022/03/24 03:43:32;;;;;;;50.10;28.05;;;;;;;1.54;90.71;103072.75;5098578;28;20036;-80
2022/03/24 03:45:58;;;;;;;52.53;27.55;;;;;;;1.53;90.39;103077.13;5098430;28;20032;-79
2022/03/24 03:48:24;;;;;;;53.78;28.23;;;;;;;1.52;90.39;103077.16;5082300;28;20057;-80
2022/03/24 03:50:50;;;;;;;52.20;29.25;;;;;;;1.50;90.38;103077.19;5104097;28;20035;-80
2022/03/24 03:53:16;;;;;;;49.38;27.85;;;;;;;1.49;90.40;103079.84;5101293;28;20032;-80
2022/03/24 03:55:41;;;;;;;50.45;28.15;;;;;;;1.46;90.63;103075.50;5079630;28;20059;-80
2022/03/24 03:58:07;;;;;;;52.65;29.17;;;;;;;1.45;90.55;103073.78;5078566;28;20113;-81
2022/03/24 04:00:52;;;;;;;51.58;29.50;;;;;;;1.43;90.54;103078.16;5095606;28;20032;-81
2022/03/24 04:03:18;;;;;;;55.78;28.27;;;;;;;1.41;90.14;103077.34;5095652;28;20043;-80
2022/03/24 04:05:43;;;;;;;57.70;29.60;;;;;;;1.39;90.58;103074.75;5095217;28;20428;-80
2022/03/24 04:08:10;;;;;;;52.65;28.25;;;;;;;1.37;90.62;103078.28;5094454;28;20068;-80
2022/03/24 04:10:37;;;;;;;57.85;29.02;;;;;;;1.34;90.82;103080.94;5095215;28;20036;-81
2022/03/24 04:13:03;;;;;;;58.25;29.25;;;;;;;1.32;90.98;103073.09;5095029;28;20032;-80
2022/03/24 04:15:28;;;;;;;55.00;29.67;;;;;;;1.33;91.11;103073.97;5095109;28;20410;-81
2022/03/24 04:17:54;;;;;;;60.95;31.48;;;;;;;1.33;91.31;103079.22;5076694;28;20031;-81
2022/03/24 04:20:23;;;;;;;54.92;30.05;;;;;;;1.30;91.20;103080.16;5076612;28;20051;-81
2022/03/24 04:22:50;;;;;;;54.92;30.20;;;;;;;1.28;91.02;103068.78;5094086;28;20040;-81
2022/03/24 04:25:16;;;;;;;57.60;31.88;;;;;;;1.27;90.92;103074.94;5094579;28;20036;-81
2022/03/24 04:27:42;;;;;;;58.47;30.90;;;;;;;1.25;90.98;103081.94;5094648;28;20135;-80
2022/03/24 04:30:08;;;;;;;55.90;30.80;;;;;;;1.23;91.02;103086.38;5076293;28;20512;-81
2022/03/24 04:32:33;;;;;;;59.30;31.60;;;;;;;1.22;90.75;103079.38;5094387;28;20032;-81
2022/03/24 04:34:59;;;;;;;59.53;31.05;;;;;;;1.20;90.92;103079.41;5094485;28;20032;-80
2022/03/24 04:37:25;;;;;;;58.88;31.55;;;;;;;1.18;91.01;103078.56;5094284;28;20107;-80
2022/03/24 04:39:51;;;;;;;60.60;31.40;;;;;;;1.17;91.16;103076.84;5093976;28;20070;-81
2022/03/24 04:42:17;;;;;;;60.17;30.80;;;;;;;1.15;91.11;103077.72;5094122;28;20114;-81
2022/03/24 04:44:42;;;;;;;59.53;33.67;;;;;;;1.13;90.93;103079.53;5093895;28;20400;-81
2022/03/24 04:47:07;;;;;;;62.83;32.92;;;;;;;1.12;91.23;103077.78;5093959;28;20519;-81
2022/03/24 04:49:33;;;;;;;58.13;32.10;;;;;;;1.10;91.61;103079.56;5094570;28;20041;-81
2022/03/24 04:51:58;;;;;;;64.03;34.45;;;;;;;1.09;91.71;103075.22;5094443;28;20040;-81
2022/03/24 04:54:24;;;;;;;69.78;34.97;;;;;;;1.10;92.04;103080.44;5076547;28;20036;-81
2022/03/24 04:56:49;;;;;;;67.65;33.55;;;;;;;1.09;92.16;103080.44;5094016;28;20078;-79
2022/03/24 04:59:15;;;;;;;68.53;33.65;;;;;;;1.05;91.86;103084.88;5075835;28;20052;-81
2022/03/24 05:01:40;;;;;;;62.67;33.40;;;;;;;1.03;91.75;103081.41;5094410;28;20024;-82
2022/03/24 05:04:07;;;;;;;67.50;34.05;;;;;;;1.01;91.86;103085.81;5075673;28;20055;-80
2022/03/24 05:06:33;;;;;;;68.57;33.72;;;;;;;1.01;91.82;103091.06;5076223;28;20042;-81
2022/03/24 05:08:58;;;;;;;68.75;34.17;;;;;;;0.99;91.48;103084.97;5094015;28;20138;-81
2022/03/24 05:11:24;;;;;;;65.80;34.33;;;;;;;1.01;91.98;103091.06;5093624;28;20433;-81
2022/03/24 05:13:51;;;;;;;71.05;35.53;;;;;;;1.02;92.14;103090.19;5094363;28;20032;-81
2022/03/24 05:16:17;;;;;;;76.32;36.95;;;;;;;1.03;92.78;103084.91;5076220;28;20061;-81
2022/03/24 05:18:42;;;;;;;80.15;37.92;;;;;;;1.09;93.66;103090.94;5094401;28;20414;-82
2022/03/24 05:21:08;;;;;;;73.82;36.75;;;;;;;1.11;93.89;103097.06;5075917;28;20032;-81
2022/03/24 05:23:34;;;;;;;74.32;36.08;;;;;;;1.13;93.73;103092.63;5094256;28;20055;-81
2022/03/24 05:25:59;;;;;;;63.92;35.22;;;;;;;1.13;93.14;103090.00;5093900;28;20483;-81
2022/03/24 05:28:25;;;;;;;87.10;41.05;;;;;;;1.16;93.67;103095.22;5094236;28;20177;-81
2022/03/24 05:30:50;;;;;;;75.68;38.15;;;;;;;1.18;94.09;103103.91;5093352;28;20020;-81
2022/03/24 05:33:16;;;;;;;83.47;38.90;;;;;;;1.20;94.24;103105.63;5093639;28;20089;-81
2022/03/24 05:35:42;;;;;;;70.32;37.10;;;;;;;1.22;93.91;103102.97;5093320;28;20479;-81
2022/03/24 05:38:07;;;;;;;83.13;38.80;;;;;;;1.22;93.74;103105.59;5075075;28;20036;-78
2022/03/24 05:40:35;;;;;;;72.05;38.38;;;;;;;1.22;93.68;103101.25;5093982;28;20161;-81
2022/03/24 05:43:01;;;;;;;74.10;37.03;;;;;;;1.25;93.61;103109.94;5093459;28;20036;-81
2022/03/24 05:45:26;;;;;;;77.50;37.45;;;;;;;1.26;93.57;103112.53;5075899;28;20032;-80
2022/03/24 05:47:51;;;;;;;73.53;38.03;;;;;;;1.28;93.42;103107.28;5094121;28;20028;-80
2022/03/24 05:50:17;;;;;;;74.00;35.45;;;;;;;1.29;93.21;103107.25;5093589;28;20032;-80
2022/03/24 05:52:43;;;;;;;74.38;38.15;;;;;;;1.31;93.01;103109.84;5093922;28;20405;-81
2022/03/24 05:55:09;;;;;;;71.88;36.15;;;;;;;1.32;93.02;103104.56;5093741;28;20089;-80
2022/03/24 05:57:34;;;;;;;69.13;36.45;;;;;;;1.33;93.16;103108.06;5093858;28;20471;-80
2022/03/24 06:00:01;;;;;;;74.00;37.95;;;;;;;1.35;93.37;103107.16;5075333;28;20028;-80
2022/03/24 06:02:27;;;;;;;77.63;40.88;;;;;;;1.39;93.44;103110.63;5075129;28;20412;-80
2022/03/24 06:04:53;;;;;;;85.32;43.95;;;;;;;1.45;93.89;103109.63;5092809;28;20038;-80
2022/03/24 06:07:19;;;;;;;81.72;40.03;;;;;;;1.49;94.31;103114.81;5093967;28;20117;-79
2022/03/24 06:09:45;;;;;;;80.05;40.25;;;;;;;1.53;94.45;103115.63;5093851;28;20060;-78
2022/03/24 06:12:12;;;;;;;70.18;37.78;;;;;;;1.57;94.73;103115.56;5093105;28;20039;-76
2022/03/24 06:14:40;;;;;;;69.25;36.72;;;;;;;1.64;94.86;103118.94;5074762;28;20046;-75
2022/03/24 06:17:06;;;;;;;71.95;35.65;;;;;;;1.70;95.06;103112.72;5075278;28;20032;-76
2022/03/24 06:19:34;;;;;;;70.10;35.58;;;;;;;1.76;95.30;103109.97;5058720;28;20418;-77
2022/03/24 06:22:00;;;;;;;73.05;36.22;;;;;;;1.82;95.69;103114.28;5093424;28;20040;-82
2022/03/24 06:24:26;;;;;;;70.07;36.17;;;;;;;1.88;95.95;103115.06;5074864;28;20043;-80
2022/03/24 06:26:51;;;;;;;74.40;38.90;;;;;;;1.94;96.24;103114.94;5093762;28;20027;-80
2022/03/24 06:29:16;;;;;;;81.45;38.67;;;;;;;2.02;96.86;103113.94;5093017;28;20484;-80
2022/03/24 06:31:42;;;;;;;67.88;35.75;;;;;;;2.08;97.21;103113.81;5093444;28;20540;-79
2022/03/24 06:34:08;;;;;;;73.82;37.20;;;;;;;2.15;97.40;103111.94;5093336;28;20032;-83
2022/03/24 06:36:33;;;;;;;82.20;39.40;;;;;;;2.24;97.90;103114.38;5092556;28;20077;-83
2022/03/24 06:39:00;;;;;;;82.63;38.88;;;;;;;2.32;98.47;103115.09;5074798;28;20040;-80
2022/03/24 06:41:27;;;;;;;83.75;38.92;;;;;;;2.42;98.86;103121.06;5075187;28;20032;-82
2022/03/24 06:43:55;;;;;;;77.32;39.50;;;;;;;2.52;99.18;103113.84;5093385;28;20032;-83
2022/03/24 06:46:21;;;;;;;86.18;39.78;;;;;;;2.64;99.51;103118.84;5094185;28;20032;-85
2022/03/24 06:48:47;;;;;;;86.32;40.90;;;;;;;2.76;99.73;103118.59;5079348;28;20028;-83
2022/03/24 06:51:12;;;;;;;85.38;42.13;;;;;;;2.90;100.00;103118.31;5097030;28;20119;-80
2022/03/24 06:53:40;;;;;;;90.20;42.55;;;;;;;3.05;100.00;103116.25;5096803;28;20032;-85
2022/03/24 06:56:06;;;;;;;93.53;44.33;;;;;;;3.18;100.00;103110.66;5097103;28;20032;-85
2022/03/24 06:58:32;;;;;;;94.03;44.47;;;;;;;3.35;100.00;103117.28;5096402;28;20032;-82
2022/03/24 07:00:57;;;;;;;102.18;46.05;;;;;;;3.49;100.00;103115.19;5077855;28;20028;-81
2022/03/24 07:03:23;;;;;;;86.25;43.25;;;;;;;3.65;100.00;103112.19;5095987;28;20035;-81
2022/03/24 07:05:48;;;;;;;90.70;44.53;;;;;;;3.81;100.00;103113.53;5096123;28;20387;-82
2022/03/24 07:08:14;;;;;;;100.25;49.30;;;;;;;4.00;100.00;103119.19;5096215;28;20437;-82
2022/03/24 07:10:39;;;;;;;92.35;48.40;;;;;;;4.19;100.00;103116.88;5096312;28;20031;-82
2022/03/24 07:13:05;;;;;;;101.85;47.47;;;;;;;4.39;100.00;103121.63;5096068;28;20112;-82
2022/03/24 07:15:31;;;;;;;99.68;45.38;;;;;;;4.61;100.00;103120.16;5078040;28;20084;-82
2022/03/24 07:17:56;;;;;;;92.82;49.53;;;;;;;4.82;100.00;103119.53;5096451;28;20043;-83
2022/03/24 07:20:23;;;;;;;91.28;46.40;;;;;;;5.06;100.00;103115.28;5096104;28;20040;-82
2022/03/24 07:22:49;;;;;;;87.63;45.90;;;;;;;5.33;100.00;103115.31;5096342;28;20039;-84
2022/03/24 07:25:15;;;;;;;100.57;46.38;;;;;;;5.57;100.00;103125.97;5096167;28;20036;-83
2022/03/24 07:27:42;;;;;;;89.88;46.95;;;;;;;5.78;100.00;103124.44;5078257;28;20089;-81
2022/03/24 07:30:09;;;;;;;87.25;47.10;;;;;;;5.98;100.00;103118.47;5095842;28;20172;-80
2022/03/24 07:32:35;;;;;;;78.57;43.20;;;;;;;6.22;100.00;103121.19;5095503;28;20081;-80
2022/03/24 07:35:02;;;;;;;77.35;40.90;;;;;;;6.52;100.00;103124.47;5095411;28;20044;-80
2022/03/24 07:37:28;;;;;;;69.97;41.40;;;;;;;6.71;100.00;103122.88;5077610;28;20134;-84
2022/03/24 07:39:53;;;;;;;62.83;38.72;;;;;;;6.98;99.94;103130.66;5095851;28;20118;-78
2022/03/24 07:42:19;;;;;;;64.07;37.70;;;;;;;7.24;96.76;103121.72;5095134;28;20070;-80
2022/03/24 07:44:44;;;;;;;59.03;35.25;;;;;;;7.58;93.56;103125.66;5095292;28;20376;-78
2022/03/24 07:47:09;;;;;;;59.10;32.63;;;;;;;7.89;89.62;103131.44;5095596;28;20024;-81
2022/03/24 07:49:35;;;;;;;56.88;33.38;;;;;;;8.20;86.47;103132.75;5094821;28;20036;-80
2022/03/24 07:52:02;;;;;;;58.20;31.23;;;;;;;8.44;81.30;103138.78;5095300;28;20036;-79
2022/03/24 07:55:00;;;;;;;59.50;32.40;;;;;;;8.76;78.75;103141.75;5094849;28;20130;-78
2022/03/24 07:57:28;;;;;;;50.25;30.23;;;;;;;9.09;76.56;103147.31;5094577;28;20024;-78
2022/03/24 07:59:53;;;;;;;51.63;29.60;;;;;;;9.40;74.29;103139.63;5095110;28;20456;-79
2022/03/24 08:02:19;;;;;;;46.03;28.40;;;;;;;9.78;70.48;103139.50;5095717;28;20078;-79
2022/03/24 08:04:44;;;;;;;50.55;28.65;;;;;;;10.27;68.98;103147.66;5077097;28;20418;-79
2022/03/24 08:07:10;;;;;;;49.65;29.02;;;;;;;10.86;66.33;103150.72;5094861;28;20036;-78
2022/03/24 08:09:35;;;;;;;52.33;29.35;;;;;;;11.54;64.84;103152.25;5094719;28;20048;-79
2022/03/24 08:12:01;;;;;;;44.17;27.70;;;;;;;11.98;60.92;103150.59;5094867;28;20051;-79
2022/03/24 08:14:27;;;;;;;46.40;26.65;;;;;;;12.34;56.63;103149.31;5094800;28;20039;-78
2022/03/24 08:16:52;;;;;;;47.67;27.88;;;;;;;12.41;56.30;103150.66;5094505;28;20117;-79
2022/03/24 08:19:18;;;;;;;43.88;27.90;;;;;;;12.67;57.99;103156.16;5076690;28;20063;-79
2022/03/24 08:21:43;;;;;;;47.35;28.42;;;;;;;12.74;57.64;103162.00;5059893;28;20043;-79
2022/03/24 08:24:09;;;;;;;50.30;28.85;;;;;;;12.75;58.12;103166.38;5095086;28;20498;-78
2022/03/24 08:26:35;;;;;;;46.47;29.23;;;;;;;12.71;57.87;103165.72;5094492;28;20113;-78
2022/03/24 08:29:01;;;;;;;50.65;30.63;;;;;;;12.74;58.96;103165.53;5094494;28;20457;-79
2022/03/24 08:31:27;;;;;;;46.42;27.98;;;;;;;12.72;57.68;103167.44;5094578;28;20043;-79
2022/03/24 08:33:53;;;;;;;49.28;28.75;;;;;;;12.76;57.32;103170.75;5094470;28;20035;-78
2022/03/24 08:36:19;;;;;;;42.80;27.67;;;;;;;12.88;59.00;103167.31;5094432;28;20038;-78
2022/03/24 08:38:44;;;;;;;38.65;26.42;;;;;;;13.09;55.30;103166.91;5094536;28;20031;-78
2022/03/24 08:41:09;;;;;;;41.90;26.77;;;;;;;13.25;52.36;103166.78;5076205;28;20140;-78
2022/03/24 08:43:35;;;;;;;37.58;25.95;;;;;;;13.54;52.65;103167.53;5094292;28;20032;-79
2022/03/24 08:46:00;;;;;;;42.78;25.65;;;;;;;13.91;49.68;103160.59;5094190;28;20461;-78
2022/03/24 08:48:26;;;;;;;44.35;25.05;;;;;;;14.58;48.25;103164.03;5093740;28;20036;-78
2022/03/24 08:50:51;;;;;;;38.72;25.95;;;;;;;15.22;44.90;103165.75;5059210;28;20384;-78
2022/03/24 08:53:17;;;;;;;37.63;24.73;;;;;;;16.00;44.18;103169.75;5075572;28;20024;-80
2022/03/24 08:55:43;;;;;;;42.80;26.02;;;;;;;16.60;42.11;103170.44;5094037;28;20035;-80
2022/03/24 08:58:09;;;;;;;49.25;27.30;;;;;;;17.14;43.49;103171.50;5094628;28;20024;-79
2022/03/24 09:00:34;;;;;;;37.75;27.45;;;;;;;17.53;40.51;103177.25;5094294;28;20035;-79
2022/03/24 09:03:00;;;;;;;40.70;25.77;;;;;;;18.00;39.46;103176.09;5094568;28;20169;-79
2022/03/24 09:05:26;;;;;;;38.22;25.98;;;;;;;18.35;39.17;103175.75;5093982;28;20032;-79
2022/03/24 09:07:52;;;;;;;37.63;26.02;;;;;;;19.27;37.01;103173.94;5093777;28;20392;-79
2022/03/24 09:10:18;;;;;;;39.00;25.00;;;;;;;19.98;34.57;103179.06;5093014;28;20048;-79
2022/03/24 09:12:47;;;;;;;41.75;24.45;;;;;;;20.92;32.35;103180.88;5093859;28;20398;-79
2022/03/24 09:15:18;;;;;;;37.78;25.25;;;;;;;21.82;31.72;103180.09;5094275;28;20036;-79
2022/03/24 09:17:43;;;;;;;41.33;24.10;;;;;;;22.14;31.03;103175.94;5094340;28;20074;-79
2022/03/24 09:20:11;;;;;;;38.72;24.13;;;;;;;22.62;29.47;103174.53;5075938;28;20032;-79
2022/03/24 09:22:38;;;;;;;36.55;24.13;;;;;;;23.07;27.86;103175.19;5093913;28;20371;-79
2022/03/24 09:25:04;;;;;;;35.95;24.02;;;;;;;23.53;25.92;103174.78;5094259;28;20032;-79
2022/03/24 09:27:29;;;;;;;32.17;23.20;;;;;;;23.23;27.02;103177.13;5096451;28;20082;-79
2022/03/24 09:29:55;;;;;;;33.40;22.90;;;;;;;23.75;25.63;103178.66;5095771;28;20453;-79
2022/03/24 09:32:21;;;;;;;31.45;23.38;;;;;;;24.22;25.93;103179.84;5095620;28;20382;-79
2022/03/24 09:34:46;;;;;;;34.97;22.73;;;;;;;24.34;24.94;103180.31;5096567;28;20032;-77
2022/03/24 09:37:16;;;;;;;35.88;23.10;;;;;;;24.20;24.42;103181.88;5094549;28;20381;-80
2022/03/24 09:39:43;;;;;;;36.33;23.38;;;;;;;24.16;24.82;103173.22;5093862;28;20063;-79
2022/03/24 09:42:08;;;;;;;32.88;21.15;;;;;;;24.36;23.25;103173.66;5076054;28;20089;-79
2022/03/24 09:44:34;;;;;;;32.33;22.08;;;;;;;23.68;23.48;103173.06;5093419;28;20430;-80
2022/03/24 09:46:59;;;;;;;35.83;20.65;;;;;;;23.97;23.82;103170.88;5093252;28;20024;-79
2022/03/24 09:49:25;;;;;;;34.13;21.83;;;;;;;24.40;23.57;103171.44;5093932;28;20032;-79
2022/03/24 09:51:50;;;;;;;32.22;20.73;;;;;;;24.50;23.73;103177.53;5093655;28;20027;-80
2022/03/24 09:54:16;;;;;;;33.60;19.90;;;;;;;24.85;22.61;103172.66;5093750;28;20085;-79
2022/03/24 09:56:41;;;;;;;36.78;20.95;;;;;;;25.01;22.50;103176.31;5092916;28;20024;-79
2022/03/24 09:59:09;;;;;;;28.13;20.05;;;;;;;25.19;21.65;103173.31;5092713;28;20034;-80
2022/03/24 10:01:36;;;;;;;27.42;19.13;;;;;;;25.36;20.17;103172.19;5093056;28;20035;-79
2022/03/24 10:04:11;;;;;;;34.13;19.30;;;;;;;25.11;21.33;103174.19;5092889;28;20124;-79
2022/03/24 10:06:39;;;;;;;38.80;20.98;;;;;;;25.16;20.18;103172.63;5093201;28;20024;-79
2022/03/24 10:09:05;;;;;;;36.15;21.58;;;;;;;25.01;21.76;103169.00;5092987;28;20484;-79
2022/03/24 10:11:30;;;;;;;35.03;20.58;;;;;;;24.99;22.49;103174.63;5093398;28;20047;-79
2022/03/24 10:13:58;;;;;;;37.25;21.88;;;;;;;25.62;21.06;103165.53;5093119;28;20039;-79
2022/03/24 10:16:32;;;;;;;36.75;22.92;;;;;;;25.50;21.30;103165.94;5093550;28;20047;-79
2022/03/24 10:19:03;;;;;;;32.55;21.60;;;;;;;25.48;21.53;103168.03;5093333;28;20032;-79
2022/03/24 10:21:31;;;;;;;35.65;22.63;;;;;;;25.84;20.84;103167.34;5095868;28;20024;-79
2022/03/24 10:24:00;;;;;;;42.65;22.23;;;;;;;26.08;20.03;103164.59;5097419;28;20482;-79
2022/03/24 10:26:44;;;;;;;33.65;21.65;;;;;;;26.19;20.20;103166.88;5079423;28;20352;-79
2022/03/24 10:29:11;;;;;;;38.20;22.52;;;;;;;25.95;21.51;103168.78;5079562;28;20035;-79
2022/03/24 10:31:37;;;;;;;33.28;22.48;;;;;;;26.18;21.10;103160.53;5079416;28;20070;-79
2022/03/24 10:34:03;;;;;;;41.30;22.90;;;;;;;25.88;20.78;103167.81;5097018;28;20472;-79
2022/03/24 10:36:29;;;;;;;33.55;22.50;;;;;;;26.25;21.33;103168.84;5078863;28;20055;-80
2022/03/24 10:38:59;;;;;;;37.13;24.38;;;;;;;26.47;20.11;103166.19;5097178;28;20040;-79
2022/03/24 10:41:28;;;;;;;38.15;24.15;;;;;;;26.62;21.29;103163.44;5078478;28;20456;-79
2022/03/24 10:44:13;;;;;;;39.55;22.55;;;;;;;26.55;19.79;103166.94;5096685;28;20430;-80
2022/03/24 10:46:43;;;;;;;44.65;23.83;;;;;;;26.83;20.15;103166.25;5096985;28;20051;-80
2022/03/24 10:49:23;;;;;;;37.13;22.10;;;;;;;27.29;19.24;103162.34;5096882;28;20126;-78
2022/03/24 10:51:50;;;;;;;38.90;22.83;;;;;;;26.84;18.97;103161.63;5096634;28;20031;-78
2022/03/24 10:54:51;;;;;;;33.85;23.98;;;;;;;26.18;21.85;103162.44;5096522;28;20032;-79
2022/03/24 10:57:23;;;;;;;35.53;23.55;;;;;;;26.74;20.73;103156.50;4995036;28;20463;-79
2022/03/24 10:59:58;;;;;;;40.08;23.25;;;;;;;26.66;20.29;103162.88;5079788;28;20044;-78
2022/03/24 11:02:25;;;;;;;39.28;23.35;;;;;;;26.73;19.96;103152.06;5096823;28;20032;-79
2022/03/24 11:04:51;;;;;;;32.58;22.40;;;;;;;27.09;18.85;103152.03;5078073;28;20028;-79
2022/03/24 11:07:27;;;;;;;42.20;22.70;;;;;;;27.09;18.08;103149.31;5096294;28;20031;-79
2022/03/24 11:09:52;;;;;;;36.15;21.48;;;;;;;26.97;19.21;103156.31;5096679;28;20064;-79
2022/03/24 11:12:28;;;;;;;34.15;22.15;;;;;;;26.56;20.29;103154.97;5096192;28;20036;-79